Time;durP1;ratioP1;P1;durP2;ratioP2;P2;SDS_P1;SDS_P2;PMS_P1;PMS_P2;Temp;Humidity;BMP_temperature;BMP_pressure;BME280_temperature;BME280_humidity;BME280_pressure;Samples;Min_cycle;Max_cycle;Signal;HPM_P1;HPM_P2
2021/08/21 00:00:32;;;;;;;7.85;7.05;;;;;;;16.10;100.00;101747.34;5170611;28;20035;-68
2021/08/21 00:03:07;;;;;;;8.73;7.72;;;;;;;16.14;100.00;101753.16;5171896;28;20409;-69
2021/08/21 00:05:38;;;;;;;9.90;7.53;;;;;;;16.12;100.00;101748.00;5171902;28;20102;-69
2021/08/21 00:08:09;;;;;;;9.52;8.40;;;;;;;16.15;100.00;101758.31;5169743;28;20622;-69
2021/08/21 00:10:41;;;;;;;10.10;7.85;;;;;;;16.17;100.00;101752.88;5169008;28;20600;-67
2021/08/21 00:13:12;;;;;;;10.85;8.48;;;;;;;16.19;100.00;101748.28;5172172;28;20393;-69
2021/08/21 00:15:43;;;;;;;9.15;8.25;;;;;;;16.21;100.00;101747.16;5170939;28;20492;-69
2021/08/21 00:18:15;;;;;;;9.20;8.23;;;;;;;16.19;100.00;101745.63;5169978;28;20046;-69
2021/08/21 00:20:46;;;;;;;10.18;8.55;;;;;;;16.24;100.00;101740.72;5171841;28;20424;-69
2021/08/21 00:23:18;;;;;;;10.00;9.00;;;;;;;16.24;100.00;101744.22;5171739;28;20938;-69
2021/08/21 00:25:49;;;;;;;8.75;7.85;;;;;;;16.23;100.00;101739.91;5171724;28;20150;-69
2021/08/21 00:28:20;;;;;;;10.50;8.23;;;;;;;16.26;100.00;101742.25;5169889;28;20031;-68
2021/08/21 00:30:51;;;;;;;9.30;8.30;;;;;;;16.25;100.00;101737.97;5172192;28;20022;-69
2021/08/21 00:33:23;;;;;;;11.35;8.63;;;;;;;16.26;100.00;101744.09;5171733;28;20030;-67
2021/08/21 00:35:54;;;;;;;8.63;7.30;;;;;;;16.26;100.00;101744.91;5170210;28;20026;-69
2021/08/21 00:38:25;;;;;;;10.32;7.70;;;;;;;16.28;100.00;101744.75;5171855;28;20046;-69
2021/08/21 00:40:57;;;;;;;11.05;8.52;;;;;;;16.30;100.00;101748.09;5169584;28;20054;-69
2021/08/21 00:43:29;;;;;;;10.32;8.27;;;;;;;16.29;100.00;101741.97;5172276;28;20023;-69
2021/08/21 00:46:00;;;;;;;9.32;8.32;;;;;;;16.33;100.00;101742.53;5168973;28;20105;-69
2021/08/21 00:48:32;;;;;;;11.60;9.25;;;;;;;16.36;100.00;101738.72;5170286;28;20498;-67
2021/08/21 00:51:04;;;;;;;11.05;9.13;;;;;;;16.37;100.00;101735.13;5171125;28;20035;-68
2021/08/21 00:53:36;;;;;;;12.57;9.10;;;;;;;16.41;100.00;101739.16;5172107;28;20026;-70
2021/08/21 00:56:08;;;;;;;12.52;9.40;;;;;;;16.43;100.00;101729.25;5171847;28;20105;-69
2021/08/21 00:58:39;;;;;;;11.87;8.17;;;;;;;16.47;100.00;101735.91;5170360;28;20035;-68
2021/08/21 01:01:11;;;;;;;9.93;8.15;;;;;;;16.45;100.00;101735.22;5170199;28;20786;-67
2021/08/21 01:03:42;;;;;;;9.98;8.60;;;;;;;16.50;100.00;101727.69;5172081;28;20022;-68
2021/08/21 01:06:13;;;;;;;11.30;8.15;;;;;;;16.47;100.00;101730.59;5172105;28;20027;-67
2021/08/21 01:08:45;;;;;;;12.20;8.93;;;;;;;16.48;100.00;101727.00;5169980;28;20030;-71
2021/08/21 01:11:16;;;;;;;10.55;8.02;;;;;;;16.48;100.00;101724.38;5169589;28;20034;-69
2021/08/21 01:13:47;;;;;;;13.15;7.88;;;;;;;16.52;100.00;101723.91;5171199;28;20041;-68
2021/08/21 01:16:20;;;;;;;10.10;8.52;;;;;;;16.50;100.00;101731.16;5170898;28;20094;-67
2021/08/21 01:18:51;;;;;;;;;;;;;;;16.82;100.00;101729.03;5170798;28;20030;-68
2021/08/21 01:21:23;;;;;;;11.52;8.00;;;;;;;16.53;100.00;101727.38;5173063;28;19929;-68
2021/08/21 01:23:54;;;;;;;11.25;8.27;;;;;;;16.43;100.00;101718.66;5174972;28;20023;-68
2021/08/21 01:26:25;;;;;;;13.43;8.25;;;;;;;16.46;100.00;101723.66;5174939;28;20030;-70
2021/08/21 01:28:57;;;;;;;9.95;7.75;;;;;;;16.42;100.00;101715.19;5174961;28;20082;-68
2021/08/21 01:31:28;;;;;;;10.57;8.70;;;;;;;16.41;100.00;101729.41;5174469;28;20035;-68
2021/08/21 01:33:59;;;;;;;12.67;8.83;;;;;;;16.39;100.00;101733.16;5172659;28;20038;-68
2021/08/21 01:36:50;;;;;;;9.55;7.90;;;;;;;16.53;100.00;101735.31;5169846;28;20285;-73
2021/08/21 01:39:21;;;;;;;8.60;7.68;;;;;;;16.37;100.00;101716.63;5174857;28;20051;-68
2021/08/21 01:41:53;;;;;;;10.60;7.63;;;;;;;16.35;100.00;101737.06;5172376;28;20387;-69
2021/08/21 01:44:24;;;;;;;10.05;7.97;;;;;;;16.36;100.00;101714.94;5175015;28;20042;-68
2021/08/21 01:46:55;;;;;;;10.38;7.35;;;;;;;16.34;100.00;101724.84;5174875;28;20023;-69
2021/08/21 01:49:27;;;;;;;10.45;7.82;;;;;;;16.29;100.00;101723.47;5174483;28;20090;-68
2021/08/21 01:52:01;;;;;;;13.48;7.88;;;;;;;16.30;100.00;101725.13;5174136;28;20030;-71
2021/08/21 01:54:34;;;;;;;9.77;7.68;;;;;;;16.14;100.00;101722.28;5170769;28;20042;-69
2021/08/21 01:57:06;;;;;;;12.88;7.88;;;;;;;16.13;100.00;101722.41;5174545;28;20057;-68
2021/08/21 01:59:40;;;;;;;10.53;7.60;;;;;;;16.07;100.00;101725.66;5175213;28;20029;-69
2021/08/21 02:02:15;;;;;;;8.45;7.13;;;;;;;16.01;100.00;101727.88;5170820;28;20031;-70
2021/08/21 02:04:46;;;;;;;8.98;7.38;;;;;;;15.94;100.00;101724.13;5173031;28;20400;-68
2021/08/21 02:07:17;;;;;;;10.15;7.38;;;;;;;15.88;100.00;101713.31;5172171;28;20029;-69
2021/08/21 02:09:49;;;;;;;10.57;7.00;;;;;;;15.87;100.00;101715.09;5173313;28;20042;-68
2021/08/21 02:12:21;;;;;;;8.45;7.07;;;;;;;15.85;100.00;101716.25;5173114;28;20057;-68
2021/08/21 02:14:52;;;;;;;10.27;7.78;;;;;;;15.80;100.00;101719.31;5174626;28;20443;-70
2021/08/21 02:17:24;;;;;;;9.70;7.93;;;;;;;15.80;100.00;101720.16;5174244;28;20062;-69
2021/08/21 02:19:55;;;;;;;11.10;7.65;;;;;;;15.78;100.00;101713.34;5171975;28;20034;-68
2021/08/21 02:22:26;;;;;;;10.75;8.52;;;;;;;15.71;100.00;101718.34;5174291;28;20045;-68
2021/08/21 02:24:58;;;;;;;9.20;7.82;;;;;;;15.71;100.00;101717.53;5173633;28;20023;-70
2021/08/21 02:27:36;;;;;;;10.45;7.43;;;;;;;15.71;100.00;101720.16;5172927;28;20547;-68
2021/08/21 02:30:08;;;;;;;11.10;7.78;;;;;;;15.69;100.00;101716.84;5170851;28;20026;-69
2021/08/21 02:32:39;;;;;;;9.63;7.35;;;;;;;15.71;100.00;101720.16;5188113;28;20508;-68
2021/08/21 02:35:11;;;;;;;8.60;7.18;;;;;;;15.70;100.00;101724.63;5172759;28;20026;-68
2021/08/21 02:37:42;;;;;;;8.82;7.40;;;;;;;15.72;100.00;101717.41;5173741;28;20022;-71
2021/08/21 02:40:14;;;;;;;10.60;6.93;;;;;;;15.72;100.00;101714.75;5173838;28;20039;-69
2021/08/21 02:42:45;;;;;;;9.05;7.53;;;;;;;15.74;100.00;101723.34;5173230;28;20037;-68
2021/08/21 02:45:17;;;;;;;8.55;7.20;;;;;;;15.75;100.00;101724.19;5172956;28;20034;-72
2021/08/21 02:47:48;;;;;;;9.80;7.88;;;;;;;15.76;100.00;101720.59;5173537;28;20030;-68
2021/08/21 02:50:20;;;;;;;10.45;8.48;;;;;;;15.78;100.00;101710.69;5172873;28;20054;-69
2021/08/21 02:52:52;;;;;;;11.40;8.43;;;;;;;15.82;100.00;101712.06;5171811;28;20546;-69
2021/08/21 02:55:23;;;;;;;12.18;9.18;;;;;;;15.80;100.00;101714.88;5172979;28;20108;-71
2021/08/21 02:57:54;;;;;;;10.82;8.77;;;;;;;15.84;100.00;101712.78;5173930;28;20042;-68
2021/08/21 03:00:26;;;;;;;13.70;8.90;;;;;;;15.86;100.00;101712.63;5173459;28;20034;-67
2021/08/21 03:02:58;;;;;;;12.75;8.60;;;;;;;15.81;100.00;101711.25;5171659;28;20027;-70
2021/08/21 03:05:30;;;;;;;9.88;8.85;;;;;;;15.81;100.00;101702.50;5170311;28;20022;-69
2021/08/21 03:08:01;;;;;;;9.63;8.63;;;;;;;15.87;100.00;101707.19;5173413;28;20041;-68
2021/08/21 03:10:33;;;;;;;12.82;8.23;;;;;;;15.87;100.00;101709.81;5171886;28;20045;-69
2021/08/21 03:13:05;;;;;;;10.43;8.35;;;;;;;15.88;100.00;101713.31;5173549;28;20467;-71
2021/08/21 03:15:36;;;;;;;10.85;8.38;;;;;;;15.92;100.00;101706.78;5173154;28;20059;-70
2021/08/21 03:18:07;;;;;;;11.15;9.43;;;;;;;15.93;100.00;101711.06;5171899;28;20064;-68
2021/08/21 03:20:39;;;;;;;11.88;9.52;;;;;;;15.94;100.00;101705.63;5173168;28;20026;-68
2021/08/21 03:23:10;;;;;;;11.80;10.15;;;;;;;15.98;100.00;101706.19;5171009;28;20480;-68
2021/08/21 03:25:41;;;;;;;11.15;9.95;;;;;;;15.98;100.00;101704.38;5173170;28;20031;-71
2021/08/21 03:28:13;;;;;;;12.00;9.13;;;;;;;16.01;100.00;101705.91;5171315;28;20061;-69
2021/08/21 03:30:44;;;;;;;11.85;9.57;;;;;;;16.00;100.00;101704.25;5172761;28;20049;-67
2021/08/21 03:33:15;;;;;;;11.57;9.35;;;;;;;16.03;100.00;101709.25;5173060;28;20054;-72
2021/08/21 03:35:47;;;;;;;14.30;9.55;;;;;;;16.04;100.00;101706.44;5169076;28;20118;-70
2021/08/21 03:38:19;;;;;;;13.52;9.60;;;;;;;16.05;100.00;101705.47;5172552;28;20022;-68
2021/08/21 03:40:50;;;;;;;13.43;9.27;;;;;;;16.05;100.00;101707.28;5169284;28;20570;-71
2021/08/21 03:43:22;;;;;;;13.07;10.68;;;;;;;16.02;100.00;101694.34;5170624;28;20351;-69
2021/08/21 03:45:53;;;;;;;12.95;10.27;;;;;;;16.06;100.00;101693.06;5172502;28;20120;-68
2021/08/21 03:48:24;;;;;;;11.18;10.07;;;;;;;16.09;100.00;101686.66;5172282;28;20033;-68
2021/08/21 03:50:55;;;;;;;12.98;10.70;;;;;;;16.07;100.00;101686.81;5172231;28;20069;-68
2021/08/21 03:53:27;;;;;;;12.70;10.07;;;;;;;16.08;100.00;101690.28;5171377;28;20026;-69
2021/08/21 03:55:58;;;;;;;11.90;10.70;;;;;;;16.10;100.00;101688.31;5172533;28;20034;-68
2021/08/21 03:58:29;;;;;;;14.23;10.68;;;;;;;16.07;100.00;101692.13;5172158;28;20081;-68
2021/08/21 04:01:01;;;;;;;14.70;11.27;;;;;;;16.08;100.00;101685.84;5169413;28;20022;-69
2021/08/21 04:03:32;;;;;;;15.05;11.82;;;;;;;16.02;100.00;101687.28;5171238;28;20484;-68
2021/08/21 04:06:03;;;;;;;12.23;10.93;;;;;;;16.00;100.00;101691.03;5171461;28;20081;-68
2021/08/21 04:08:35;;;;;;;13.35;11.23;;;;;;;15.99;100.00;101686.72;5171924;28;20015;-68
2021/08/21 04:11:06;;;;;;;17.25;11.57;;;;;;;15.92;100.00;101673.25;5170951;28;20548;-68
2021/08/21 04:13:37;;;;;;;14.55;11.80;;;;;;;15.97;100.00;101691.31;5169772;28;20484;-68
2021/08/21 04:16:08;;;;;;;14.85;12.13;;;;;;;15.94;100.00;101696.88;5172521;28;20026;-71
2021/08/21 04:18:40;;;;;;;20.50;13.85;;;;;;;15.96;100.00;101689.66;5169571;28;20084;-68
2021/08/21 04:21:11;;;;;;;17.52;12.48;;;;;;;15.94;100.00;101688.94;5170599;28;20567;-68
2021/08/21 04:23:43;;;;;;;16.60;12.53;;;;;;;15.91;100.00;101683.94;5171360;28;20104;-70
2021/08/21 04:26:14;;;;;;;13.10;11.55;;;;;;;15.89;100.00;101691.19;5172407;28;20670;-68
2021/08/21 04:28:45;;;;;;;14.52;12.23;;;;;;;15.86;100.00;101684.38;5170463;28;20123;-68
2021/08/21 04:31:17;;;;;;;14.65;12.27;;;;;;;15.80;100.00;101691.09;5171611;28;20027;-68
2021/08/21 04:33:48;;;;;;;16.30;12.82;;;;;;;15.74;100.00;101689.00;5171395;28;20118;-69
2021/08/21 04:36:19;;;;;;;14.13;12.68;;;;;;;15.73;100.00;101687.34;5161481;28;20542;-70
2021/08/21 04:38:50;;;;;;;16.42;12.55;;;;;;;15.73;100.00;101686.53;5171274;28;20050;-68
2021/08/21 04:41:22;;;;;;;17.30;13.77;;;;;;;15.66;100.00;101693.34;5171978;28;20031;-69
2021/08/21 04:43:53;;;;;;;15.95;12.85;;;;;;;15.64;100.00;101693.44;5172239;28;20035;-68
2021/08/21 04:46:25;;;;;;;15.30;13.27;;;;;;;15.60;100.00;101686.78;5170488;28;20054;-71
2021/08/21 04:48:56;;;;;;;15.32;13.63;;;;;;;15.59;100.00;101690.41;5172058;28;20057;-69
2021/08/21 04:51:27;;;;;;;16.48;13.60;;;;;;;15.59;100.00;101690.41;5172274;28;20109;-68
2021/08/21 04:53:58;;;;;;;17.33;13.80;;;;;;;15.55;100.00;101692.50;5169750;28;20038;-67
2021/08/21 04:56:30;;;;;;;15.00;13.40;;;;;;;15.55;100.00;101695.13;5174522;28;20130;-69
2021/08/21 04:59:01;;;;;;;16.90;14.75;;;;;;;15.57;100.00;101695.00;5174454;28;20023;-68
2021/08/21 05:01:32;;;;;;;17.05;15.25;;;;;;;15.61;100.00;101696.41;5176504;28;20139;-69
2021/08/21 05:04:04;;;;;;;18.67;15.15;;;;;;;15.57;100.00;101701.13;5174130;28;20572;-69
2021/08/21 05:06:35;;;;;;;17.02;14.68;;;;;;;15.58;100.00;101691.38;5174127;28;20034;-68
2021/08/21 05:09:06;;;;;;;17.30;14.52;;;;;;;15.56;100.00;101704.72;5175077;28;20023;-69
2021/08/21 05:11:37;;;;;;;17.45;14.38;;;;;;;15.58;100.00;101710.72;5175532;28;20392;-68
2021/08/21 05:14:09;;;;;;;18.65;14.75;;;;;;;15.58;100.00;101707.25;5174387;28;20020;-68
2021/08/21 05:16:46;;;;;;;16.73;14.98;;;;;;;15.57;100.00;101708.22;5175458;28;20069;-69
2021/08/21 05:22:09;;;;;;;16.00;13.85;;;;;;;15.51;100.00;101708.78;5174852;28;20556;-70
2021/08/21 05:24:40;;;;;;;16.80;15.00;;;;;;;15.58;100.00;101712.53;5173669;28;20015;-68
2021/08/21 05:27:12;;;;;;;17.23;15.32;;;;;;;15.60;100.00;101713.19;5175354;28;20031;-72
2021/08/21 05:29:44;;;;;;;17.85;15.30;;;;;;;15.61;100.00;101704.31;5173767;28;20022;-68
2021/08/21 05:32:15;;;;;;;19.73;17.00;;;;;;;15.62;100.00;101707.78;5175186;28;20085;-69
2021/08/21 05:34:46;;;;;;;20.85;17.02;;;;;;;15.62;100.00;101705.97;5175274;28;20051;-69
2021/08/21 05:37:18;;;;;;;17.55;15.70;;;;;;;15.62;100.00;101703.34;5175290;28;20019;-68
2021/08/21 05:39:49;;;;;;;18.08;15.80;;;;;;;15.65;100.00;101705.72;5173325;28;20055;-70
2021/08/21 05:42:20;;;;;;;18.80;16.80;;;;;;;15.66;100.00;101702.09;5174637;28;20023;-68
2021/08/21 05:44:52;;;;;;;18.73;16.73;;;;;;;15.67;100.00;101710.84;5174416;28;20101;-68
2021/08/21 05:47:23;;;;;;;19.38;16.33;;;;;;;15.71;100.00;101704.31;5172629;28;20015;-71
2021/08/21 05:50:00;;;;;;;18.67;15.90;;;;;;;15.74;100.00;101709.31;5173900;28;20026;-68
2021/08/21 05:52:32;;;;;;;19.75;16.88;;;;;;;15.75;100.00;101708.34;5172459;28;20084;-70
2021/08/21 05:55:03;;;;;;;19.00;16.75;;;;;;;15.77;100.00;101709.88;5174107;28;20027;-68
2021/08/21 05:57:35;;;;;;;20.70;16.85;;;;;;;15.78;100.00;101715.97;5173877;28;20036;-72
2021/08/21 06:00:07;;;;;;;21.05;17.33;;;;;;;15.84;100.00;101709.31;5172222;28;20539;-68
2021/08/21 06:02:40;;;;;;;20.38;17.77;;;;;;;15.86;100.00;101708.16;5167065;28;20400;-68
2021/08/21 06:05:12;;;;;;;19.90;17.50;;;;;;;15.88;100.00;101706.22;5173362;28;20023;-69
2021/08/21 06:07:43;;;;;;;22.40;18.55;;;;;;;15.92;100.00;101712.06;5173690;28;20219;-70
2021/08/21 06:10:15;;;;;;;22.17;19.42;;;;;;;15.98;100.00;101714.09;5173411;28;20037;-68
2021/08/21 06:12:47;;;;;;;22.65;19.52;;;;;;;16.00;100.00;101710.34;5174578;28;20031;-69
2021/08/21 06:15:19;;;;;;;27.02;19.55;;;;;;;16.11;100.00;101706.72;5174226;28;20027;-67
2021/08/21 06:17:50;;;;;;;23.48;19.83;;;;;;;16.15;100.00;101712.53;5172223;28;20399;-69
2021/08/21 06:20:21;;;;;;;23.50;19.85;;;;;;;16.22;100.00;101710.97;5173809;28;20042;-68
2021/08/21 06:22:53;;;;;;;25.42;20.17;;;;;;;16.32;100.00;101709.09;5173206;28;20338;-71
2021/08/21 06:25:24;;;;;;;28.48;20.80;;;;;;;16.40;100.00;101718.94;5170750;28;20031;-71
2021/08/21 06:27:55;;;;;;;24.95;20.73;;;;;;;16.50;100.00;101722.38;5170010;28;20027;-69
2021/08/21 06:30:27;;;;;;;25.45;20.33;;;;;;;16.61;100.00;101719.53;5170811;28;20026;-72
2021/08/21 06:32:58;;;;;;;23.02;19.30;;;;;;;16.74;100.00;101713.91;5169573;28;20023;-70
2021/08/21 06:35:29;;;;;;;24.27;19.17;;;;;;;16.85;100.00;101718.16;5169646;28;20031;-69
2021/08/21 06:38:00;;;;;;;22.13;17.77;;;;;;;17.00;100.00;101721.97;5166594;28;20192;-72
2021/08/21 06:40:32;;;;;;;19.17;17.05;;;;;;;17.13;100.00;101714.50;5170310;28;20037;-69
2021/08/21 06:43:03;;;;;;;20.80;18.05;;;;;;;17.23;100.00;101709.91;5172065;28;20448;-70
2021/08/21 06:45:34;;;;;;;20.65;17.27;;;;;;;17.39;100.00;101713.72;5172304;28;20041;-69
2021/08/21 06:48:06;;;;;;;19.23;16.10;;;;;;;17.56;100.00;101712.00;5171766;28;20027;-71
2021/08/21 06:50:37;;;;;;;19.58;16.83;;;;;;;17.67;100.00;101717.06;5171257;28;20030;-70
2021/08/21 06:53:08;;;;;;;20.40;17.23;;;;;;;17.80;100.00;101716.66;5173255;28;20121;-69
2021/08/21 06:55:39;;;;;;;17.17;15.05;;;;;;;17.92;100.00;101713.63;5172155;28;20041;-69
2021/08/21 06:58:11;;;;;;;19.38;15.93;;;;;;;18.02;100.00;101713.50;5170043;28;20035;-68
2021/08/21 07:00:42;;;;;;;18.00;15.80;;;;;;;18.12;100.00;101719.50;5169096;28;20610;-69
2021/08/21 07:03:13;;;;;;;17.83;14.70;;;;;;;18.23;100.00;101711.28;5171814;28;20058;-68
2021/08/21 07:05:44;;;;;;;16.70;14.83;;;;;;;18.30;100.00;101719.44;5172834;28;20019;-69
2021/08/21 07:08:16;;;;;;;16.00;14.33;;;;;;;18.36;100.00;101715.31;5171650;28;20057;-71
2021/08/21 07:10:50;;;;;;;15.75;14.02;;;;;;;18.47;100.00;101709.72;5172559;28;20246;-68
2021/08/21 07:13:24;;;;;;;15.27;12.98;;;;;;;18.50;100.00;101712.03;5172890;28;20031;-70
2021/08/21 07:15:55;;;;;;;15.05;13.55;;;;;;;18.59;100.00;101703.09;5171264;28;20023;-69
2021/08/21 07:18:27;;;;;;;15.02;13.43;;;;;;;18.67;100.00;101708.44;5172468;28;20027;-71
2021/08/21 07:20:58;;;;;;;14.77;12.63;;;;;;;18.72;100.00;101710.66;5173097;28;20061;-69
2021/08/21 07:23:29;;;;;;;13.75;12.30;;;;;;;18.74;100.00;101707.81;5171005;28;20022;-70
2021/08/21 07:26:00;;;;;;;14.37;12.30;;;;;;;18.75;100.00;101704.16;5172342;28;20058;-71
2021/08/21 07:28:32;;;;;;;12.70;11.17;;;;;;;18.80;100.00;101712.50;5173136;28;20035;-69
2021/08/21 07:31:03;;;;;;;12.95;11.30;;;;;;;18.88;100.00;101708.03;5171803;28;20027;-69
2021/08/21 07:33:35;;;;;;;13.77;10.93;;;;;;;18.96;100.00;101704.53;5172333;28;20105;-71
2021/08/21 07:36:06;;;;;;;12.97;10.50;;;;;;;19.07;100.00;101704.22;5172426;28;20366;-69
2021/08/21 07:38:38;;;;;;;12.70;10.50;;;;;;;19.19;100.00;101710.88;5149819;28;20609;-72
2021/08/21 07:41:12;;;;;;;11.93;10.07;;;;;;;19.27;100.00;101709.22;5172762;28;20493;-69
2021/08/21 07:43:43;;;;;;;10.70;9.55;;;;;;;19.31;100.00;101707.88;5170645;28;20067;-69
2021/08/21 07:46:15;;;;;;;9.77;8.30;;;;;;;19.40;100.00;101710.38;5171218;28;20054;-69
2021/08/21 07:48:46;;;;;;;10.23;8.87;;;;;;;19.51;100.00;101711.03;5171605;28;20039;-71
2021/08/21 07:51:17;;;;;;;10.60;9.17;;;;;;;19.59;100.00;101705.72;5171943;28;20027;-69
2021/08/21 07:53:48;;;;;;;8.63;7.60;;;;;;;19.71;100.00;101709.72;5172178;28;20031;-69
2021/08/21 07:56:20;;;;;;;8.87;7.30;;;;;;;19.84;100.00;101707.34;5171824;28;20115;-69
2021/08/21 07:58:51;;;;;;;9.07;7.70;;;;;;;19.91;100.00;101707.50;5170973;28;20030;-70
2021/08/21 08:01:22;;;;;;;12.23;8.23;;;;;;;19.96;100.00;101721.09;5172551;28;20388;-72
2021/08/21 08:03:53;;;;;;;11.57;8.73;;;;;;;20.05;100.00;101716.63;5171103;28;20030;-69
2021/08/21 08:06:25;;;;;;;9.20;8.20;;;;;;;20.12;100.00;101717.59;5172433;28;20054;-69
2021/08/21 08:08:56;;;;;;;9.90;8.17;;;;;;;20.24;100.00;101715.38;5172080;28;20030;-69
2021/08/21 08:11:27;;;;;;;8.90;8.00;;;;;;;20.35;100.00;101723.81;5170176;28;20429;-69
2021/08/21 08:13:58;;;;;;;8.60;7.63;;;;;;;20.45;100.00;101715.59;5169281;28;20026;-69
2021/08/21 08:16:30;;;;;;;8.77;7.77;;;;;;;20.56;100.00;101709.94;5172176;28;20033;-69
2021/08/21 08:19:01;;;;;;;10.30;8.30;;;;;;;20.65;100.00;101714.22;5171002;28;20181;-71
2021/08/21 08:21:32;;;;;;;15.03;9.27;;;;;;;20.74;100.00;101716.81;5170525;28;20023;-70
2021/08/21 08:24:04;;;;;;;10.97;7.70;;;;;;;20.82;100.00;101720.25;5171321;28;20026;-70
2021/08/21 08:26:35;;;;;;;10.50;7.53;;;;;;;20.94;100.00;101715.34;5171702;28;20031;-69
2021/08/21 08:29:06;;;;;;;12.17;8.30;;;;;;;21.02;100.00;101709.97;5169930;28;20631;-72
2021/08/21 08:31:38;;;;;;;9.03;7.50;;;;;;;21.08;100.00;101713.78;5172426;28;20392;-70
2021/08/21 08:34:09;;;;;;;11.37;8.03;;;;;;;21.19;100.00;101710.69;5171310;28;20048;-70
2021/08/21 08:36:40;;;;;;;8.97;7.27;;;;;;;21.27;100.00;101699.94;5170817;28;20323;-70
2021/08/21 08:39:11;;;;;;;11.33;7.80;;;;;;;21.36;100.00;101716.72;5171673;28;20081;-70
2021/08/21 08:41:43;;;;;;;8.90;8.00;;;;;;;21.46;100.00;101706.66;5172384;28;20027;-69
2021/08/21 08:44:15;;;;;;;9.40;8.23;;;;;;;21.61;100.00;101704.84;5171205;28;20041;-72
2021/08/21 08:46:47;;;;;;;9.68;8.10;;;;;;;21.77;100.00;101703.00;5170361;28;20480;-70
2021/08/21 08:49:19;;;;;;;9.17;7.00;;;;;;;21.89;100.00;101703.38;5171644;28;20027;-73
2021/08/21 08:51:51;;;;;;;8.45;6.65;;;;;;;22.00;100.00;101717.09;5171800;28;20037;-69
2021/08/21 08:54:23;;;;;;;19.88;8.15;;;;;;;22.06;100.00;101712.88;5170758;28;20180;-72
2021/08/21 08:56:54;;;;;;;8.97;6.67;;;;;;;22.16;100.00;101704.59;5169780;28;20030;-70
2021/08/21 08:59:26;;;;;;;8.93;6.60;;;;;;;22.21;100.00;101707.56;5170949;28;20111;-69
2021/08/21 09:01:57;;;;;;;9.30;7.13;;;;;;;22.23;100.00;101709.00;5172109;28;20572;-70
2021/08/21 09:04:28;;;;;;;8.03;6.10;;;;;;;22.36;100.00;101710.22;5169259;28;20027;-69
2021/08/21 09:07:00;;;;;;;7.13;5.83;;;;;;;22.41;100.00;101705.13;5171055;28;20031;-71
2021/08/21 09:09:31;;;;;;;11.23;5.17;;;;;;;22.53;100.00;101715.13;5171484;28;20037;-70
2021/08/21 09:12:20;;;;;;;9.30;6.17;;;;;;;22.57;100.00;101712.91;5170868;28;20019;-69
2021/08/21 09:14:52;;;;;;;8.57;5.40;;;;;;;22.62;100.00;101704.34;5171601;28;20162;-70
2021/08/21 09:17:23;;;;;;;9.53;6.07;;;;;;;22.58;100.00;101702.06;5170996;28;20026;-70
2021/08/21 09:20:04;;;;;;;6.70;5.70;;;;;;;22.68;100.00;101706.25;5170650;28;20235;-70
2021/08/21 09:22:35;;;;;;;7.20;5.97;;;;;;;22.73;100.00;101703.84;5170334;28;20031;-70
2021/08/21 09:25:09;;;;;;;8.80;5.60;;;;;;;22.88;100.00;101701.97;5171451;28;20022;-70
2021/08/21 09:27:41;;;;;;;9.57;5.88;;;;;;;22.94;100.00;101708.41;5171167;28;20023;-69
2021/08/21 09:30:17;;;;;;;6.60;5.37;;;;;;;23.11;100.00;101703.63;5170210;28;20085;-72
2021/08/21 09:32:49;;;;;;;10.40;5.68;;;;;;;23.23;99.90;101710.13;5170885;28;20393;-70
2021/08/21 09:35:21;;;;;;;5.93;5.33;;;;;;;23.43;97.86;101705.75;5170354;28;20085;-71
2021/08/21 09:37:57;;;;;;;6.13;5.18;;;;;;;23.49;96.78;101707.66;5171213;28;20034;-71
2021/08/21 09:40:34;;;;;;;7.10;5.18;;;;;;;23.63;98.64;101711.25;5172330;28;20443;-69
2021/08/21 09:43:16;;;;;;;7.65;4.68;;;;;;;23.65;97.51;101708.38;5171332;28;20027;-71
2021/08/21 09:45:47;;;;;;;8.88;4.82;;;;;;;23.60;94.55;101705.44;5172524;28;20057;-72
2021/08/21 09:48:18;;;;;;;6.80;4.93;;;;;;;23.59;93.09;101699.28;5174049;28;20031;-69
2021/08/21 09:50:50;;;;;;;5.83;3.77;;;;;;;23.73;92.30;101705.59;5172268;28;20031;-70
2021/08/21 09:53:35;;;;;;;7.33;4.30;;;;;;;23.89;93.39;101693.72;5174744;28;20054;-69
2021/08/21 09:56:10;;;;;;;5.40;3.78;;;;;;;23.98;94.65;101692.53;5174286;28;20085;-69
2021/08/21 09:58:42;;;;;;;7.05;4.35;;;;;;;23.94;91.88;101697.50;5171805;28;20092;-69
2021/08/21 10:01:13;;;;;;;6.63;3.73;;;;;;;23.99;92.58;101689.69;5172026;28;20037;-69
2021/08/21 10:03:45;;;;;;;4.60;3.57;;;;;;;24.12;90.42;101690.75;5173337;28;20514;-70
2021/08/21 10:06:16;;;;;;;5.17;3.20;;;;;;;24.08;88.08;101684.16;5174726;28;20353;-70
2021/08/21 10:08:49;;;;;;;4.77;3.40;;;;;;;24.19;89.81;101688.94;5173807;28;20039;-69
2021/08/21 10:11:21;;;;;;;3.97;3.15;;;;;;;24.13;86.96;101677.19;5172755;28;20029;-70
2021/08/21 10:13:53;;;;;;;6.22;3.53;;;;;;;24.22;87.64;101677.84;5174524;28;20400;-72
2021/08/21 10:16:26;;;;;;;5.35;2.80;;;;;;;24.30;88.40;101674.97;5174997;28;20476;-69
2021/08/21 10:18:57;;;;;;;6.05;3.80;;;;;;;24.26;87.37;101676.41;5173000;28;20130;-69
2021/08/21 10:21:30;;;;;;;5.37;3.23;;;;;;;24.28;86.95;101677.03;5174007;28;20448;-70
2021/08/21 10:24:01;;;;;;;;;;;;;;;24.71;87.89;101677.59;5174209;28;20114;-70
2021/08/21 10:26:41;;;;;;;4.28;3.13;;;;;;;24.54;86.69;101673.63;5173668;28;19914;-70
2021/08/21 10:29:12;;;;;;;4.72;2.92;;;;;;;24.76;86.08;101674.31;5174303;28;20154;-69
2021/08/21 10:31:47;;;;;;;4.73;3.13;;;;;;;24.73;84.70;101677.38;5173420;28;20030;-70
2021/08/21 10:34:18;;;;;;;4.65;3.17;;;;;;;24.86;84.82;101674.75;5173740;28;20027;-69
2021/08/21 10:36:55;;;;;;;3.10;2.13;;;;;;;25.04;84.35;101674.16;5172538;28;20030;-69
2021/08/21 10:39:40;;;;;;;6.55;2.80;;;;;;;25.23;85.45;101676.03;5173802;28;20575;-70
2021/08/21 10:42:30;;;;;;;5.75;3.00;;;;;;;25.33;84.25;101674.78;5174044;28;20030;-69
2021/08/21 10:45:02;;;;;;;3.40;2.65;;;;;;;25.13;84.64;101672.94;5172903;28;20744;-71
2021/08/21 10:47:35;;;;;;;;;;;;;;;25.59;85.81;101669.38;5173940;28;20038;-69
2021/08/21 10:50:15;;;;;;;2.92;2.40;;;;;;;25.32;84.39;101673.13;5173762;28;19920;-70
2021/08/21 10:52:51;;;;;;;2.80;1.90;;;;;;;25.25;84.54;101665.09;5172584;28;20580;-69
2021/08/21 10:55:37;;;;;;;3.50;1.85;;;;;;;25.40;85.81;101663.00;5172140;28;20081;-71
2021/08/21 10:58:20;;;;;;;3.75;1.83;;;;;;;25.47;84.55;101666.50;5173626;28;20027;-70
2021/08/21 11:00:56;;;;;;;3.78;1.67;;;;;;;25.28;82.74;101670.03;5173460;28;20043;-70
2021/08/21 11:03:27;;;;;;;2.95;1.90;;;;;;;25.35;84.15;101670.03;5172699;28;20110;-69
2021/08/21 11:06:09;;;;;;;4.07;2.00;;;;;;;25.29;82.83;101671.69;5173167;28;20106;-72
2021/08/21 11:08:40;;;;;;;2.75;1.90;;;;;;;25.11;81.82;101658.06;5173563;28;20306;-69
2021/08/21 11:13:57;;;;;;;2.43;2.10;;;;;;;25.10;81.24;101657.25;5172310;28;20435;-70
2021/08/21 11:16:53;;;;;;;3.25;2.08;;;;;;;25.41;82.87;101661.97;5173377;28;20023;-69
2021/08/21 11:19:25;;;;;;;7.35;2.50;;;;;;;25.30;80.48;101656.41;5173131;28;20029;-71
2021/08/21 11:22:21;;;;;;;2.87;1.67;;;;;;;25.46;81.77;101646.09;5171541;28;20035;-72
2021/08/21 11:24:52;;;;;;;4.88;1.98;;;;;;;25.35;78.57;101644.03;5173415;28;20086;-69
2021/08/21 11:27:28;;;;;;;5.23;1.97;;;;;;;25.56;79.80;101647.50;5173461;28;20023;-70
2021/08/21 11:30:09;;;;;;;7.68;2.15;;;;;;;25.59;80.32;101639.84;5171562;28;20022;-69
2021/08/21 11:32:45;;;;;;;3.17;2.13;;;;;;;25.61;81.27;101648.53;5172197;28;20388;-69
2021/08/21 11:35:31;;;;;;;3.15;1.85;;;;;;;25.43;77.84;101633.06;5172604;28;20026;-69
2021/08/21 11:38:06;;;;;;;2.33;1.63;;;;;;;25.52;78.18;101636.34;5172851;28;20019;-69
2021/08/21 11:40:42;;;;;;;2.88;1.10;;;;;;;25.55;78.87;101630.56;5171418;28;20157;-69